sensor_id;sensor_type;location;lat;lon;timestamp;P1;durP1;ratioP1;P2;durP2;ratioP2
297;SDS011;133;49.626;9.680;2024-03-02T00:01:10;25.80;;;16.93;;
297;SDS011;133;49.626;9.680;2024-03-02T00:03:39;34.23;;;19.60;;
297;SDS011;133;49.626;9.680;2024-03-02T00:06:05;30.50;;;18.63;;
297;SDS011;133;49.626;9.680;2024-03-02T00:08:32;29.90;;;18.63;;
297;SDS011;133;49.626;9.680;2024-03-02T00:10:58;32.93;;;20.03;;
297;SDS011;133;49.626;9.680;2024-03-02T00:13:25;28.60;;;17.37;;
297;SDS011;133;49.626;9.680;2024-03-02T00:15:54;26.00;;;17.27;;
297;SDS011;133;49.626;9.680;2024-03-02T00:18:25;24.70;;;16.07;;
297;SDS011;133;49.626;9.680;2024-03-02T00:20:56;31.77;;;19.70;;
297;SDS011;133;49.626;9.680;2024-03-02T00:23:22;31.47;;;19.90;;
297;SDS011;133;49.626;9.680;2024-03-02T00:25:49;33.43;;;19.50;;
297;SDS011;133;49.626;9.680;2024-03-02T00:28:21;29.30;;;18.73;;
297;SDS011;133;49.626;9.680;2024-03-02T00:30:54;28.93;;;17.30;;
297;SDS011;133;49.626;9.680;2024-03-02T00:33:20;25.67;;;14.83;;
297;SDS011;133;49.626;9.680;2024-03-02T00:35:47;26.10;;;16.40;;
297;SDS011;133;49.626;9.680;2024-03-02T00:38:14;27.10;;;16.77;;
297;SDS011;133;49.626;9.680;2024-03-02T00:40:41;25.83;;;16.60;;
297;SDS011;133;49.626;9.680;2024-03-02T00:43:10;27.00;;;15.33;;
297;SDS011;133;49.626;9.680;2024-03-02T00:45:58;31.67;;;19.03;;
297;SDS011;133;49.626;9.680;2024-03-02T00:48:23;26.97;;;16.20;;
297;SDS011;133;49.626;9.680;2024-03-02T00:50:52;25.67;;;15.63;;
297;SDS011;133;49.626;9.680;2024-03-02T00:53:18;28.27;;;17.17;;
297;SDS011;133;49.626;9.680;2024-03-02T00:55:49;24.77;;;16.27;;
297;SDS011;133;49.626;9.680;2024-03-02T00:58:15;27.60;;;17.10;;
297;SDS011;133;49.626;9.680;2024-03-02T01:00:42;24.63;;;16.93;;
297;SDS011;133;49.626;9.680;2024-03-02T01:03:07;28.17;;;17.63;;
297;SDS011;133;49.626;9.680;2024-03-02T01:05:33;27.17;;;17.60;;
297;SDS011;133;49.626;9.680;2024-03-02T01:08:00;30.53;;;19.30;;
297;SDS011;133;49.626;9.680;2024-03-02T01:10:25;28.07;;;17.80;;
297;SDS011;133;49.626;9.680;2024-03-02T01:12:51;25.83;;;17.30;;
297;SDS011;133;49.626;9.680;2024-03-02T01:15:17;27.90;;;17.90;;
297;SDS011;133;49.626;9.680;2024-03-02T01:17:42;22.93;;;15.80;;
297;SDS011;133;49.626;9.680;2024-03-02T01:20:08;29.73;;;18.13;;
297;SDS011;133;49.626;9.680;2024-03-02T01:22:34;29.80;;;17.03;;
297;SDS011;133;49.626;9.680;2024-03-02T01:25:00;24.40;;;16.30;;
297;SDS011;133;49.626;9.680;2024-03-02T01:27:26;26.03;;;15.97;;
297;SDS011;133;49.626;9.680;2024-03-02T01:29:53;25.97;;;15.60;;
297;SDS011;133;49.626;9.680;2024-03-02T01:32:19;21.93;;;15.17;;
297;SDS011;133;49.626;9.680;2024-03-02T01:34:45;27.90;;;16.90;;
297;SDS011;133;49.626;9.680;2024-03-02T01:37:11;22.60;;;14.47;;
297;SDS011;133;49.626;9.680;2024-03-02T01:39:36;23.80;;;14.83;;
297;SDS011;133;49.626;9.680;2024-03-02T01:42:02;24.10;;;15.37;;
297;SDS011;133;49.626;9.680;2024-03-02T01:44:27;21.00;;;14.10;;
297;SDS011;133;49.626;9.680;2024-03-02T01:46:53;23.63;;;14.40;;
297;SDS011;133;49.626;9.680;2024-03-02T01:49:19;23.30;;;15.20;;
297;SDS011;133;49.626;9.680;2024-03-02T01:51:44;28.67;;;17.30;;
297;SDS011;133;49.626;9.680;2024-03-02T01:54:11;36.93;;;21.90;;
297;SDS011;133;49.626;9.680;2024-03-02T01:56:36;28.90;;;17.63;;
297;SDS011;133;49.626;9.680;2024-03-02T01:59:02;31.33;;;19.50;;
297;SDS011;133;49.626;9.680;2024-03-02T02:01:28;29.13;;;18.50;;
297;SDS011;133;49.626;9.680;2024-03-02T02:03:54;31.47;;;18.27;;
297;SDS011;133;49.626;9.680;2024-03-02T02:06:20;31.83;;;18.97;;
297;SDS011;133;49.626;9.680;2024-03-02T02:08:46;27.07;;;18.17;;
297;SDS011;133;49.626;9.680;2024-03-02T02:11:15;27.67;;;18.00;;
297;SDS011;133;49.626;9.680;2024-03-02T02:13:41;31.83;;;19.40;;
297;SDS011;133;49.626;9.680;2024-03-02T02:16:07;33.20;;;20.67;;
297;SDS011;133;49.626;9.680;2024-03-02T02:18:34;27.67;;;18.73;;
297;SDS011;133;49.626;9.680;2024-03-02T02:21:01;31.10;;;20.40;;
297;SDS011;133;49.626;9.680;2024-03-02T02:23:27;34.17;;;20.30;;
297;SDS011;133;49.626;9.680;2024-03-02T02:25:53;27.97;;;18.47;;
297;SDS011;133;49.626;9.680;2024-03-02T02:28:19;29.23;;;18.90;;
297;SDS011;133;49.626;9.680;2024-03-02T02:30:45;28.70;;;18.00;;
297;SDS011;133;49.626;9.680;2024-03-02T02:33:11;29.07;;;19.00;;
297;SDS011;133;49.626;9.680;2024-03-02T02:35:36;29.20;;;18.40;;
297;SDS011;133;49.626;9.680;2024-03-02T02:38:02;29.80;;;17.60;;
297;SDS011;133;49.626;9.680;2024-03-02T02:40:29;30.70;;;17.20;;
297;SDS011;133;49.626;9.680;2024-03-02T02:42:55;28.33;;;17.20;;
297;SDS011;133;49.626;9.680;2024-03-02T02:45:21;29.83;;;18.20;;
297;SDS011;133;49.626;9.680;2024-03-02T02:47:47;32.43;;;18.70;;
297;SDS011;133;49.626;9.680;2024-03-02T02:50:13;25.73;;;16.47;;
297;SDS011;133;49.626;9.680;2024-03-02T02:52:39;23.03;;;15.43;;
297;SDS011;133;49.626;9.680;2024-03-02T02:55:09;25.17;;;15.47;;
297;SDS011;133;49.626;9.680;2024-03-02T02:57:36;25.27;;;16.17;;
297;SDS011;133;49.626;9.680;2024-03-02T03:02:39;26.43;;;16.17;;
297;SDS011;133;49.626;9.680;2024-03-02T03:05:09;35.10;;;18.50;;
297;SDS011;133;49.626;9.680;2024-03-02T03:07:36;26.03;;;16.17;;
297;SDS011;133;49.626;9.680;2024-03-02T03:10:02;23.70;;;15.23;;
297;SDS011;133;49.626;9.680;2024-03-02T03:12:29;25.53;;;15.67;;
297;SDS011;133;49.626;9.680;2024-03-02T03:14:56;28.73;;;17.43;;
297;SDS011;133;49.626;9.680;2024-03-02T03:17:22;28.27;;;17.80;;
297;SDS011;133;49.626;9.680;2024-03-02T03:19:48;21.90;;;14.80;;
297;SDS011;133;49.626;9.680;2024-03-02T03:22:14;26.03;;;15.83;;
297;SDS011;133;49.626;9.680;2024-03-02T03:24:40;22.47;;;14.90;;
297;SDS011;133;49.626;9.680;2024-03-02T03:27:06;21.80;;;14.73;;
297;SDS011;133;49.626;9.680;2024-03-02T03:29:32;32.23;;;17.23;;
297;SDS011;133;49.626;9.680;2024-03-02T03:31:57;26.03;;;17.27;;
297;SDS011;133;49.626;9.680;2024-03-02T03:34:23;27.50;;;16.70;;
297;SDS011;133;49.626;9.680;2024-03-02T03:36:48;29.83;;;17.87;;
297;SDS011;133;49.626;9.680;2024-03-02T03:39:14;29.00;;;16.87;;
297;SDS011;133;49.626;9.680;2024-03-02T03:41:43;26.17;;;16.90;;
297;SDS011;133;49.626;9.680;2024-03-02T03:44:08;31.83;;;18.23;;
297;SDS011;133;49.626;9.680;2024-03-02T03:46:34;31.10;;;17.53;;
297;SDS011;133;49.626;9.680;2024-03-02T03:49:00;31.30;;;17.33;;
297;SDS011;133;49.626;9.680;2024-03-02T03:51:25;24.87;;;15.80;;
297;SDS011;133;49.626;9.680;2024-03-02T03:53:51;24.47;;;15.67;;
297;SDS011;133;49.626;9.680;2024-03-02T03:56:16;27.50;;;16.67;;
297;SDS011;133;49.626;9.680;2024-03-02T03:58:42;21.77;;;14.20;;
297;SDS011;133;49.626;9.680;2024-03-02T04:01:07;23.57;;;15.80;;
297;SDS011;133;49.626;9.680;2024-03-02T04:03:33;24.77;;;15.10;;
297;SDS011;133;49.626;9.680;2024-03-02T04:05:59;31.73;;;18.13;;
297;SDS011;133;49.626;9.680;2024-03-02T04:08:24;31.90;;;18.57;;
297;SDS011;133;49.626;9.680;2024-03-02T04:10:50;27.67;;;16.37;;
297;SDS011;133;49.626;9.680;2024-03-02T04:13:15;28.43;;;18.27;;
297;SDS011;133;49.626;9.680;2024-03-02T04:15:41;32.17;;;16.90;;
297;SDS011;133;49.626;9.680;2024-03-02T04:18:07;27.50;;;17.37;;
297;SDS011;133;49.626;9.680;2024-03-02T04:20:32;26.10;;;16.10;;
297;SDS011;133;49.626;9.680;2024-03-02T04:22:58;38.57;;;20.50;;
297;SDS011;133;49.626;9.680;2024-03-02T04:25:23;28.77;;;18.07;;
297;SDS011;133;49.626;9.680;2024-03-02T04:27:49;23.70;;;15.43;;
297;SDS011;133;49.626;9.680;2024-03-02T04:30:15;23.17;;;14.90;;
297;SDS011;133;49.626;9.680;2024-03-02T04:32:40;62.27;;;18.20;;
297;SDS011;133;49.626;9.680;2024-03-02T04:35:07;26.47;;;15.47;;
297;SDS011;133;49.626;9.680;2024-03-02T04:37:34;22.67;;;15.70;;
297;SDS011;133;49.626;9.680;2024-03-02T04:39:59;21.20;;;14.43;;
297;SDS011;133;49.626;9.680;2024-03-02T04:42:25;22.77;;;14.97;;
297;SDS011;133;49.626;9.680;2024-03-02T04:44:51;25.83;;;15.33;;
297;SDS011;133;49.626;9.680;2024-03-02T04:47:16;234.27;;;27.50;;
297;SDS011;133;49.626;9.680;2024-03-02T04:49:42;35.83;;;16.00;;
297;SDS011;133;49.626;9.680;2024-03-02T04:52:08;20.43;;;13.87;;
297;SDS011;133;49.626;9.680;2024-03-02T04:54:34;22.33;;;14.33;;
297;SDS011;133;49.626;9.680;2024-03-02T04:57:19;16.07;;;12.97;;
297;SDS011;133;49.626;9.680;2024-03-02T04:59:45;19.13;;;13.50;;
297;SDS011;133;49.626;9.680;2024-03-02T05:02:10;51.70;;;15.73;;
297;SDS011;133;49.626;9.680;2024-03-02T05:04:38;19.00;;;13.00;;
297;SDS011;133;49.626;9.680;2024-03-02T05:07:05;39.87;;;16.30;;
297;SDS011;133;49.626;9.680;2024-03-02T05:09:30;21.73;;;13.20;;
297;SDS011;133;49.626;9.680;2024-03-02T05:11:56;22.40;;;14.60;;
297;SDS011;133;49.626;9.680;2024-03-02T05:14:40;19.70;;;14.40;;
297;SDS011;133;49.626;9.680;2024-03-02T05:17:06;26.63;;;15.80;;
297;SDS011;133;49.626;9.680;2024-03-02T05:19:31;31.10;;;17.00;;
297;SDS011;133;49.626;9.680;2024-03-02T05:21:57;30.07;;;17.50;;
297;SDS011;133;49.626;9.680;2024-03-02T05:24:23;52.17;;;17.40;;
297;SDS011;133;49.626;9.680;2024-03-02T05:26:48;19.17;;;12.20;;
297;SDS011;133;49.626;9.680;2024-03-02T05:29:14;21.00;;;13.80;;
297;SDS011;133;49.626;9.680;2024-03-02T05:31:40;55.67;;;16.23;;
297;SDS011;133;49.626;9.680;2024-03-02T05:34:05;26.87;;;14.53;;
297;SDS011;133;49.626;9.680;2024-03-02T05:36:31;50.33;;;16.47;;
297;SDS011;133;49.626;9.680;2024-03-02T05:38:57;23.33;;;14.67;;
297;SDS011;133;49.626;9.680;2024-03-02T05:41:22;20.00;;;13.27;;
297;SDS011;133;49.626;9.680;2024-03-02T05:43:48;47.57;;;14.90;;
297;SDS011;133;49.626;9.680;2024-03-02T05:46:14;19.20;;;13.90;;
297;SDS011;133;49.626;9.680;2024-03-02T05:48:40;20.47;;;13.00;;
297;SDS011;133;49.626;9.680;2024-03-02T05:51:06;33.87;;;14.67;;
297;SDS011;133;49.626;9.680;2024-03-02T05:53:31;56.17;;;17.13;;
297;SDS011;133;49.626;9.680;2024-03-02T05:55:57;27.63;;;15.03;;
297;SDS011;133;49.626;9.680;2024-03-02T05:58:22;34.20;;;13.83;;
297;SDS011;133;49.626;9.680;2024-03-02T06:01:06;74.67;;;17.33;;
297;SDS011;133;49.626;9.680;2024-03-02T06:03:32;54.77;;;18.33;;
297;SDS011;133;49.626;9.680;2024-03-02T06:05:58;54.17;;;17.27;;
297;SDS011;133;49.626;9.680;2024-03-02T06:08:24;18.90;;;12.67;;
297;SDS011;133;49.626;9.680;2024-03-02T06:10:50;23.50;;;15.30;;
297;SDS011;133;49.626;9.680;2024-03-02T06:13:16;19.63;;;13.90;;
297;SDS011;133;49.626;9.680;2024-03-02T06:15:41;35.97;;;15.00;;
297;SDS011;133;49.626;9.680;2024-03-02T06:18:07;78.37;;;15.83;;
297;SDS011;133;49.626;9.680;2024-03-02T06:20:33;17.37;;;12.90;;
297;SDS011;133;49.626;9.680;2024-03-02T06:22:59;18.73;;;12.57;;
297;SDS011;133;49.626;9.680;2024-03-02T06:25:24;21.07;;;13.70;;
297;SDS011;133;49.626;9.680;2024-03-02T06:27:50;17.60;;;12.50;;
297;SDS011;133;49.626;9.680;2024-03-02T06:30:16;38.00;;;13.60;;
297;SDS011;133;49.626;9.680;2024-03-02T06:32:41;19.07;;;12.60;;
297;SDS011;133;49.626;9.680;2024-03-02T06:35:07;23.23;;;13.37;;
297;SDS011;133;49.626;9.680;2024-03-02T06:37:35;15.90;;;12.07;;
297;SDS011;133;49.626;9.680;2024-03-02T06:40:05;17.60;;;13.10;;
297;SDS011;133;49.626;9.680;2024-03-02T06:42:35;25.47;;;13.23;;
297;SDS011;133;49.626;9.680;2024-03-02T06:45:01;20.93;;;14.40;;
297;SDS011;133;49.626;9.680;2024-03-02T06:47:27;20.40;;;14.80;;
297;SDS011;133;49.626;9.680;2024-03-02T06:49:53;20.53;;;13.67;;
297;SDS011;133;49.626;9.680;2024-03-02T06:52:18;22.83;;;14.47;;
297;SDS011;133;49.626;9.680;2024-03-02T06:54:45;26.47;;;14.77;;
297;SDS011;133;49.626;9.680;2024-03-02T06:57:11;21.40;;;14.40;;
297;SDS011;133;49.626;9.680;2024-03-02T06:59:37;33.00;;;14.23;;
297;SDS011;133;49.626;9.680;2024-03-02T07:02:02;19.30;;;13.17;;
297;SDS011;133;49.626;9.680;2024-03-02T07:04:28;34.90;;;16.97;;
297;SDS011;133;49.626;9.680;2024-03-02T07:06:54;22.50;;;15.57;;
297;SDS011;133;49.626;9.680;2024-03-02T07:09:20;18.57;;;13.80;;
297;SDS011;133;49.626;9.680;2024-03-02T07:11:47;18.40;;;13.17;;
297;SDS011;133;49.626;9.680;2024-03-02T07:14:14;21.73;;;13.60;;
297;SDS011;133;49.626;9.680;2024-03-02T07:16:39;17.83;;;12.47;;
297;SDS011;133;49.626;9.680;2024-03-02T07:19:05;18.57;;;13.70;;
297;SDS011;133;49.626;9.680;2024-03-02T07:21:31;30.83;;;20.27;;
297;SDS011;133;49.626;9.680;2024-03-02T07:23:58;23.90;;;15.90;;
297;SDS011;133;49.626;9.680;2024-03-02T07:26:24;18.30;;;13.27;;
297;SDS011;133;49.626;9.680;2024-03-02T07:28:50;19.10;;;12.77;;
297;SDS011;133;49.626;9.680;2024-03-02T07:31:16;19.47;;;13.30;;
297;SDS011;133;49.626;9.680;2024-03-02T07:33:45;20.20;;;14.33;;
297;SDS011;133;49.626;9.680;2024-03-02T07:36:13;22.00;;;14.77;;
297;SDS011;133;49.626;9.680;2024-03-02T07:38:39;20.93;;;13.60;;
297;SDS011;133;49.626;9.680;2024-03-02T07:41:05;21.07;;;14.40;;
297;SDS011;133;49.626;9.680;2024-03-02T07:43:32;18.10;;;12.63;;
297;SDS011;133;49.626;9.680;2024-03-02T07:45:58;17.37;;;13.37;;
297;SDS011;133;49.626;9.680;2024-03-02T07:48:24;21.13;;;14.70;;
297;SDS011;133;49.626;9.680;2024-03-02T07:50:50;66.60;;;20.27;;
297;SDS011;133;49.626;9.680;2024-03-02T07:53:16;18.50;;;14.07;;
297;SDS011;133;49.626;9.680;2024-03-02T07:55:42;26.77;;;17.30;;
297;SDS011;133;49.626;9.680;2024-03-02T07:58:07;32.23;;;20.33;;
297;SDS011;133;49.626;9.680;2024-03-02T08:00:33;28.13;;;17.50;;
297;SDS011;133;49.626;9.680;2024-03-02T08:03:00;22.50;;;15.90;;
297;SDS011;133;49.626;9.680;2024-03-02T08:05:26;44.37;;;19.20;;
297;SDS011;133;49.626;9.680;2024-03-02T08:07:52;29.20;;;18.60;;
297;SDS011;133;49.626;9.680;2024-03-02T08:10:18;23.33;;;16.27;;
297;SDS011;133;49.626;9.680;2024-03-02T08:12:44;26.40;;;17.60;;
297;SDS011;133;49.626;9.680;2024-03-02T08:15:09;25.70;;;18.20;;
297;SDS011;133;49.626;9.680;2024-03-02T08:17:35;26.57;;;18.10;;
297;SDS011;133;49.626;9.680;2024-03-02T08:20:01;24.03;;;16.13;;
297;SDS011;133;49.626;9.680;2024-03-02T08:22:27;22.53;;;15.03;;
297;SDS011;133;49.626;9.680;2024-03-02T08:24:53;24.73;;;15.30;;
297;SDS011;133;49.626;9.680;2024-03-02T08:27:19;21.23;;;15.30;;
297;SDS011;133;49.626;9.680;2024-03-02T08:29:45;25.37;;;17.43;;
297;SDS011;133;49.626;9.680;2024-03-02T08:32:11;23.17;;;16.87;;
297;SDS011;133;49.626;9.680;2024-03-02T08:34:36;25.47;;;17.70;;
297;SDS011;133;49.626;9.680;2024-03-02T08:37:02;28.67;;;19.60;;
297;SDS011;133;49.626;9.680;2024-03-02T08:39:28;27.83;;;17.87;;
297;SDS011;133;49.626;9.680;2024-03-02T08:41:54;23.90;;;17.10;;
297;SDS011;133;49.626;9.680;2024-03-02T08:44:20;25.50;;;17.40;;
297;SDS011;133;49.626;9.680;2024-03-02T08:46:46;26.23;;;18.10;;
297;SDS011;133;49.626;9.680;2024-03-02T08:49:12;71.60;;;37.20;;
297;SDS011;133;49.626;9.680;2024-03-02T08:51:38;37.57;;;23.63;;
297;SDS011;133;49.626;9.680;2024-03-02T08:54:03;32.97;;;20.17;;
297;SDS011;133;49.626;9.680;2024-03-02T08:56:29;27.20;;;18.47;;
297;SDS011;133;49.626;9.680;2024-03-02T08:58:55;30.00;;;19.90;;
297;SDS011;133;49.626;9.680;2024-03-02T09:01:21;52.43;;;27.20;;
297;SDS011;133;49.626;9.680;2024-03-02T09:03:47;46.17;;;25.60;;
297;SDS011;133;49.626;9.680;2024-03-02T09:06:16;67.13;;;35.73;;
297;SDS011;133;49.626;9.680;2024-03-02T09:08:42;71.97;;;43.23;;
297;SDS011;133;49.626;9.680;2024-03-02T09:11:09;45.10;;;28.50;;
297;SDS011;133;49.626;9.680;2024-03-02T09:13:35;33.93;;;21.63;;
297;SDS011;133;49.626;9.680;2024-03-02T09:16:02;30.40;;;19.00;;
297;SDS011;133;49.626;9.680;2024-03-02T09:18:29;30.37;;;18.37;;
297;SDS011;133;49.626;9.680;2024-03-02T09:20:54;28.00;;;18.37;;
297;SDS011;133;49.626;9.680;2024-03-02T09:23:20;29.03;;;19.40;;
297;SDS011;133;49.626;9.680;2024-03-02T09:25:46;25.00;;;18.00;;
297;SDS011;133;49.626;9.680;2024-03-02T09:28:12;25.43;;;17.87;;
297;SDS011;133;49.626;9.680;2024-03-02T09:30:37;26.27;;;18.57;;
297;SDS011;133;49.626;9.680;2024-03-02T09:33:03;29.70;;;20.97;;
297;SDS011;133;49.626;9.680;2024-03-02T09:35:29;25.67;;;17.50;;
297;SDS011;133;49.626;9.680;2024-03-02T09:37:55;21.17;;;16.73;;
297;SDS011;133;49.626;9.680;2024-03-02T09:40:21;21.73;;;16.17;;
297;SDS011;133;49.626;9.680;2024-03-02T09:42:47;26.83;;;18.57;;
297;SDS011;133;49.626;9.680;2024-03-02T09:45:19;23.50;;;17.50;;
297;SDS011;133;49.626;9.680;2024-03-02T09:47:48;22.90;;;16.90;;
297;SDS011;133;49.626;9.680;2024-03-02T09:50:14;26.40;;;18.03;;
297;SDS011;133;49.626;9.680;2024-03-02T09:52:41;22.07;;;16.87;;
297;SDS011;133;49.626;9.680;2024-03-02T09:55:08;21.07;;;15.83;;
297;SDS011;133;49.626;9.680;2024-03-02T09:57:34;21.00;;;16.47;;
297;SDS011;133;49.626;9.680;2024-03-02T10:00:00;22.47;;;16.90;;
297;SDS011;133;49.626;9.680;2024-03-02T10:02:25;21.60;;;16.67;;
297;SDS011;133;49.626;9.680;2024-03-02T10:04:51;22.00;;;16.03;;
297;SDS011;133;49.626;9.680;2024-03-02T10:07:17;20.03;;;15.30;;
297;SDS011;133;49.626;9.680;2024-03-02T10:09:44;19.03;;;14.60;;
297;SDS011;133;49.626;9.680;2024-03-02T10:12:12;22.73;;;16.47;;
297;SDS011;133;49.626;9.680;2024-03-02T10:14:40;21.57;;;16.00;;
297;SDS011;133;49.626;9.680;2024-03-02T10:17:06;22.10;;;17.27;;
297;SDS011;133;49.626;9.680;2024-03-02T10:19:33;28.00;;;19.20;;
297;SDS011;133;49.626;9.680;2024-03-02T10:22:00;22.57;;;16.70;;
297;SDS011;133;49.626;9.680;2024-03-02T10:24:39;21.57;;;15.50;;
297;SDS011;133;49.626;9.680;2024-03-02T10:29:47;22.83;;;15.73;;
297;SDS011;133;49.626;9.680;2024-03-02T10:32:13;21.50;;;16.03;;
297;SDS011;133;49.626;9.680;2024-03-02T10:34:40;19.43;;;14.90;;
297;SDS011;133;49.626;9.680;2024-03-02T10:37:07;28.37;;;17.40;;
297;SDS011;133;49.626;9.680;2024-03-02T10:39:36;27.03;;;17.60;;
297;SDS011;133;49.626;9.680;2024-03-02T10:42:06;22.70;;;16.20;;
297;SDS011;133;49.626;9.680;2024-03-02T10:44:32;23.07;;;15.93;;
297;SDS011;133;49.626;9.680;2024-03-02T10:47:02;24.23;;;17.17;;
297;SDS011;133;49.626;9.680;2024-03-02T10:49:29;25.80;;;17.60;;
297;SDS011;133;49.626;9.680;2024-03-02T10:51:56;23.70;;;15.57;;
297;SDS011;133;49.626;9.680;2024-03-02T10:54:23;22.97;;;16.50;;
297;SDS011;133;49.626;9.680;2024-03-02T10:56:51;26.43;;;15.90;;
297;SDS011;133;49.626;9.680;2024-03-02T11:01:52;29.57;;;17.83;;
297;SDS011;133;49.626;9.680;2024-03-02T11:04:22;24.00;;;15.77;;
297;SDS011;133;49.626;9.680;2024-03-02T11:06:51;25.43;;;16.70;;
297;SDS011;133;49.626;9.680;2024-03-02T11:09:21;22.20;;;15.43;;
297;SDS011;133;49.626;9.680;2024-03-02T11:12:00;22.97;;;15.37;;
297;SDS011;133;49.626;9.680;2024-03-02T11:14:40;19.47;;;13.80;;
297;SDS011;133;49.626;9.680;2024-03-02T11:17:10;19.00;;;14.30;;
297;SDS011;133;49.626;9.680;2024-03-02T11:19:38;18.27;;;13.40;;
297;SDS011;133;49.626;9.680;2024-03-02T11:22:05;15.70;;;12.03;;
297;SDS011;133;49.626;9.680;2024-03-02T11:24:31;16.73;;;12.87;;
297;SDS011;133;49.626;9.680;2024-03-02T11:26:58;15.23;;;11.10;;
297;SDS011;133;49.626;9.680;2024-03-02T11:32:04;14.00;;;10.47;;
297;SDS011;133;49.626;9.680;2024-03-02T11:34:31;12.07;;;9.60;;
297;SDS011;133;49.626;9.680;2024-03-02T11:36:58;11.77;;;8.70;;
297;SDS011;133;49.626;9.680;2024-03-02T11:39:26;11.37;;;8.70;;
297;SDS011;133;49.626;9.680;2024-03-02T11:41:55;11.17;;;8.40;;
297;SDS011;133;49.626;9.680;2024-03-02T11:44:26;12.20;;;8.63;;
297;SDS011;133;49.626;9.680;2024-03-02T11:46:59;12.20;;;8.90;;
297;SDS011;133;49.626;9.680;2024-03-02T11:49:44;8.10;;;6.80;;
297;SDS011;133;49.626;9.680;2024-03-02T11:52:19;6.37;;;5.47;;
297;SDS011;133;49.626;9.680;2024-03-02T11:54:47;5.53;;;5.20;;
297;SDS011;133;49.626;9.680;2024-03-02T11:57:20;8.67;;;7.70;;
297;SDS011;133;49.626;9.680;2024-03-02T11:59:49;7.60;;;6.80;;
297;SDS011;133;49.626;9.680;2024-03-02T12:02:15;5.63;;;5.17;;
297;SDS011;133;49.626;9.680;2024-03-02T12:04:43;4.07;;;3.87;;
297;SDS011;133;49.626;9.680;2024-03-02T12:07:10;4.17;;;3.93;;
297;SDS011;133;49.626;9.680;2024-03-02T12:09:36;5.30;;;4.50;;
297;SDS011;133;49.626;9.680;2024-03-02T12:14:29;5.03;;;4.10;;
297;SDS011;133;49.626;9.680;2024-03-02T12:16:55;4.30;;;4.00;;
297;SDS011;133;49.626;9.680;2024-03-02T12:19:23;4.33;;;3.97;;
297;SDS011;133;49.626;9.680;2024-03-02T12:21:49;3.70;;;3.50;;
297;SDS011;133;49.626;9.680;2024-03-02T12:24:15;3.37;;;3.17;;
297;SDS011;133;49.626;9.680;2024-03-02T12:26:41;3.20;;;3.00;;
297;SDS011;133;49.626;9.680;2024-03-02T12:29:07;4.37;;;4.13;;
297;SDS011;133;49.626;9.680;2024-03-02T12:31:33;4.10;;;3.90;;
297;SDS011;133;49.626;9.680;2024-03-02T12:34:00;3.60;;;3.40;;
297;SDS011;133;49.626;9.680;2024-03-02T12:36:27;3.07;;;2.90;;
297;SDS011;133;49.626;9.680;2024-03-02T12:38:53;3.37;;;3.10;;
297;SDS011;133;49.626;9.680;2024-03-02T12:41:19;3.93;;;3.77;;
297;SDS011;133;49.626;9.680;2024-03-02T12:43:45;3.40;;;3.20;;
297;SDS011;133;49.626;9.680;2024-03-02T12:46:11;4.20;;;3.17;;
297;SDS011;133;49.626;9.680;2024-03-02T12:48:38;3.37;;;3.17;;
297;SDS011;133;49.626;9.680;2024-03-02T12:51:07;3.90;;;3.70;;
297;SDS011;133;49.626;9.680;2024-03-02T12:53:33;3.40;;;3.20;;
297;SDS011;133;49.626;9.680;2024-03-02T12:55:58;4.03;;;3.20;;
297;SDS011;133;49.626;9.680;2024-03-02T12:58:24;3.23;;;3.03;;
297;SDS011;133;49.626;9.680;2024-03-02T13:01:04;4.57;;;4.17;;
297;SDS011;133;49.626;9.680;2024-03-02T13:03:31;4.00;;;3.80;;
297;SDS011;133;49.626;9.680;2024-03-02T13:05:59;4.93;;;4.63;;
297;SDS011;133;49.626;9.680;2024-03-02T13:08:25;4.43;;;4.13;;
297;SDS011;133;49.626;9.680;2024-03-02T13:10:51;4.57;;;4.00;;
297;SDS011;133;49.626;9.680;2024-03-02T13:13:16;5.90;;;4.30;;
297;SDS011;133;49.626;9.680;2024-03-02T13:15:42;4.57;;;4.30;;
297;SDS011;133;49.626;9.680;2024-03-02T13:18:09;3.17;;;2.97;;
297;SDS011;133;49.626;9.680;2024-03-02T13:20:35;3.43;;;2.77;;
297;SDS011;133;49.626;9.680;2024-03-02T13:23:01;3.00;;;2.80;;
297;SDS011;133;49.626;9.680;2024-03-02T13:25:26;3.17;;;2.97;;
297;SDS011;133;49.626;9.680;2024-03-02T13:27:52;2.77;;;2.57;;
297;SDS011;133;49.626;9.680;2024-03-02T13:30:17;3.23;;;2.60;;
297;SDS011;133;49.626;9.680;2024-03-02T13:32:43;2.80;;;2.60;;
297;SDS011;133;49.626;9.680;2024-03-02T13:35:09;2.70;;;2.50;;
297;SDS011;133;49.626;9.680;2024-03-02T13:37:36;3.13;;;2.40;;
297;SDS011;133;49.626;9.680;2024-03-02T13:40:02;2.30;;;2.10;;
297;SDS011;133;49.626;9.680;2024-03-02T13:42:29;2.20;;;2.00;;
297;SDS011;133;49.626;9.680;2024-03-02T13:44:55;3.37;;;2.03;;
297;SDS011;133;49.626;9.680;2024-03-02T13:47:21;2.40;;;2.20;;
297;SDS011;133;49.626;9.680;2024-03-02T13:49:47;2.20;;;2.00;;
297;SDS011;133;49.626;9.680;2024-03-02T13:52:14;2.37;;;2.10;;
297;SDS011;133;49.626;9.680;2024-03-02T13:54:41;2.37;;;2.17;;
297;SDS011;133;49.626;9.680;2024-03-02T13:57:08;2.30;;;2.10;;
297;SDS011;133;49.626;9.680;2024-03-02T13:59:35;2.40;;;2.20;;
297;SDS011;133;49.626;9.680;2024-03-02T14:02:01;2.57;;;2.37;;
297;SDS011;133;49.626;9.680;2024-03-02T14:04:31;2.90;;;2.70;;
297;SDS011;133;49.626;9.680;2024-03-02T14:07:00;2.50;;;2.30;;
297;SDS011;133;49.626;9.680;2024-03-02T14:09:27;4.07;;;3.27;;
297;SDS011;133;49.626;9.680;2024-03-02T14:11:53;3.03;;;2.83;;
297;SDS011;133;49.626;9.680;2024-03-02T14:14:19;3.00;;;2.80;;
297;SDS011;133;49.626;9.680;2024-03-02T14:16:45;2.77;;;2.57;;
297;SDS011;133;49.626;9.680;2024-03-02T14:19:11;3.17;;;2.97;;
297;SDS011;133;49.626;9.680;2024-03-02T14:21:37;5.80;;;3.63;;
297;SDS011;133;49.626;9.680;2024-03-02T14:24:03;3.10;;;2.90;;
297;SDS011;133;49.626;9.680;2024-03-02T14:26:29;3.00;;;2.80;;
297;SDS011;133;49.626;9.680;2024-03-02T14:28:55;3.00;;;2.80;;
297;SDS011;133;49.626;9.680;2024-03-02T14:31:21;3.60;;;3.40;;
297;SDS011;133;49.626;9.680;2024-03-02T14:33:46;3.20;;;3.03;;
297;SDS011;133;49.626;9.680;2024-03-02T14:36:12;2.90;;;2.70;;
297;SDS011;133;49.626;9.680;2024-03-02T14:38:38;3.50;;;3.17;;
297;SDS011;133;49.626;9.680;2024-03-02T14:41:04;3.80;;;3.67;;
297;SDS011;133;49.626;9.680;2024-03-02T14:43:30;3.67;;;3.47;;
297;SDS011;133;49.626;9.680;2024-03-02T14:45:56;4.20;;;3.50;;
297;SDS011;133;49.626;9.680;2024-03-02T14:48:24;3.50;;;3.30;;
297;SDS011;133;49.626;9.680;2024-03-02T14:50:49;4.27;;;3.77;;
297;SDS011;133;49.626;9.680;2024-03-02T14:53:16;3.73;;;3.40;;
297;SDS011;133;49.626;9.680;2024-03-02T14:55:41;4.10;;;3.47;;
297;SDS011;133;49.626;9.680;2024-03-02T14:58:07;3.77;;;3.30;;
297;SDS011;133;49.626;9.680;2024-03-02T15:00:33;5.07;;;3.40;;
297;SDS011;133;49.626;9.680;2024-03-02T15:02:59;3.70;;;3.50;;
297;SDS011;133;49.626;9.680;2024-03-02T15:05:24;3.43;;;3.20;;
297;SDS011;133;49.626;9.680;2024-03-02T15:07:51;4.40;;;3.37;;
297;SDS011;133;49.626;9.680;2024-03-02T15:10:17;4.00;;;3.17;;
297;SDS011;133;49.626;9.680;2024-03-02T15:12:43;2.97;;;2.70;;
297;SDS011;133;49.626;9.680;2024-03-02T15:15:09;4.83;;;3.30;;
297;SDS011;133;49.626;9.680;2024-03-02T15:17:36;3.00;;;2.80;;
297;SDS011;133;49.626;9.680;2024-03-02T15:20:02;2.90;;;2.70;;
297;SDS011;133;49.626;9.680;2024-03-02T15:22:29;2.80;;;2.60;;
297;SDS011;133;49.626;9.680;2024-03-02T15:24:55;3.60;;;2.90;;
297;SDS011;133;49.626;9.680;2024-03-02T15:27:20;3.30;;;3.10;;
297;SDS011;133;49.626;9.680;2024-03-02T15:29:46;3.60;;;3.13;;
297;SDS011;133;49.626;9.680;2024-03-02T15:32:15;3.60;;;3.40;;